Weather at Sultan Bantilan Airport

Public forecast

Using degrees Celsius for public forecast. Weather courtesy of forecast.io.

Closest aviation weather report (METAR) to Sultan Bantilan Airport

Closest report is Sam Ratulangi Airport, 249.4 nm (461.8 km) E. Retrieved 2021/07/31 23:30 UTC (19 minutes ago):

WAMM 312330Z VRB02KT 9999 FEW022 26/24 Q1010 NOSIG

Aviation forecast (TAF) for Sultan Bantilan Airport

Forecast is more than 12 hours old.

Retrieved 2014/03/16 06:20 UTC (7 years ago):

TAF WAMI 120500Z 1206/1218 36010KT 9000 SCT020 TEMPO 1206/1210 FEW018CB BECMG 1211/1213 00000KT 8000